Lee-on-the-Solent, United Kingdom
Current Conditions -  °F | °C
As of 2:50 PM on Friday 24 Oct 2014 (Local Time) from EGHI Reporting Station
Broken Clouds Broken Clouds  
Wind Chill: 61°   Ceiling: 2500
Heat Index: 61°   Visibility: 6mi
Dew Point: 55°   Wind: 6mph
Humidity: 82%   Direction: 250°WSW
Pressure: 29.91"   Gusts: NA
Location:  50.8°N, 1.2°W
Report Text: EGHI 241350Z 25005KT 220V280 9999 SCT014 BKN025 16/13 Q1013
Loading
Personal Weather Stations






























Interactive Weather Map New forecast layout! Learn more

10-Day Weather Forecast

Advertisements
Track Severe Weather on mobile